sensor_id;sensor_type;location;lat;lon;timestamp;temperature;humidity
68922;DHT22;55959;51.244;5.724;2022-10-30T00:00:19;19.70;61.00
68922;DHT22;55959;51.244;5.724;2022-10-30T00:02:48;19.70;61.10
68922;DHT22;55959;51.244;5.724;2022-10-30T00:05:14;19.70;61.20
68922;DHT22;55959;51.244;5.724;2022-10-30T00:07:40;19.60;61.20
68922;DHT22;55959;51.244;5.724;2022-10-30T00:10:06;19.60;61.20
68922;DHT22;55959;51.244;5.724;2022-10-30T00:12:33;19.50;61.30
68922;DHT22;55959;51.244;5.724;2022-10-30T00:14:58;19.50;61.40
68922;DHT22;55959;51.244;5.724;2022-10-30T00:17:24;19.50;61.40
68922;DHT22;55959;51.244;5.724;2022-10-30T00:19:50;19.50;61.50
68922;DHT22;55959;51.244;5.724;2022-10-30T00:22:15;19.40;61.40
68922;DHT22;55959;51.244;5.724;2022-10-30T00:24:41;19.40;61.50
68922;DHT22;55959;51.244;5.724;2022-10-30T00:27:07;19.40;61.60
68922;DHT22;55959;51.244;5.724;2022-10-30T00:29:33;19.40;61.60
68922;DHT22;55959;51.244;5.724;2022-10-30T00:31:58;19.30;61.60
68922;DHT22;55959;51.244;5.724;2022-10-30T00:34:24;19.30;61.60
68922;DHT22;55959;51.244;5.724;2022-10-30T00:36:50;19.30;61.70
68922;DHT22;55959;51.244;5.724;2022-10-30T00:39:16;19.30;61.80
68922;DHT22;55959;51.244;5.724;2022-10-30T00:41:41;19.20;61.80
68922;DHT22;55959;51.244;5.724;2022-10-30T00:50:16;19.10;62.00
68922;DHT22;55959;51.244;5.724;2022-10-30T00:53:11;19.10;62.10
68922;DHT22;55959;51.244;5.724;2022-10-30T00:55:46;19.00;62.20
68922;DHT22;55959;51.244;5.724;2022-10-30T00:58:25;19.00;62.20
68922;DHT22;55959;51.244;5.724;2022-10-30T01:00:59;18.90;62.20
68922;DHT22;55959;51.244;5.724;2022-10-30T01:03:29;18.90;62.30
68922;DHT22;55959;51.244;5.724;2022-10-30T01:06:00;18.90;62.40
68922;DHT22;55959;51.244;5.724;2022-10-30T01:08:27;18.90;62.40
68922;DHT22;55959;51.244;5.724;2022-10-30T01:10:53;18.90;62.40
68922;DHT22;55959;51.244;5.724;2022-10-30T01:13:20;18.90;62.40
68922;DHT22;55959;51.244;5.724;2022-10-30T01:16:01;18.80;62.50
68922;DHT22;55959;51.244;5.724;2022-10-30T01:38:54;18.50;63.00
68922;DHT22;55959;51.244;5.724;2022-10-30T01:41:22;18.40;63.00
68922;DHT22;55959;51.244;5.724;2022-10-30T01:43:52;18.40;63.00
68922;DHT22;55959;51.244;5.724;2022-10-30T01:49:29;18.30;63.20
68922;DHT22;55959;51.244;5.724;2022-10-30T01:52:21;18.30;63.20
68922;DHT22;55959;51.244;5.724;2022-10-30T01:58:17;18.20;63.50
68922;DHT22;55959;51.244;5.724;2022-10-30T02:00:51;18.20;63.50
68922;DHT22;55959;51.244;5.724;2022-10-30T02:03:18;18.10;63.60
68922;DHT22;55959;51.244;5.724;2022-10-30T02:05:48;18.10;63.70
68922;DHT22;55959;51.244;5.724;2022-10-30T02:08:14;18.10;63.70
68922;DHT22;55959;51.244;5.724;2022-10-30T02:10:42;18.00;63.70
68922;DHT22;55959;51.244;5.724;2022-10-30T02:13:09;18.00;63.90
68922;DHT22;55959;51.244;5.724;2022-10-30T02:15:36;18.00;63.90
68922;DHT22;55959;51.244;5.724;2022-10-30T02:18:02;17.90;63.90
68922;DHT22;55959;51.244;5.724;2022-10-30T02:20:28;17.90;64.00
68922;DHT22;55959;51.244;5.724;2022-10-30T02:22:54;17.80;64.00
68922;DHT22;55959;51.244;5.724;2022-10-30T02:25:20;17.80;64.10
68922;DHT22;55959;51.244;5.724;2022-10-30T02:27:45;17.80;64.20
68922;DHT22;55959;51.244;5.724;2022-10-30T02:30:12;17.80;64.30
68922;DHT22;55959;51.244;5.724;2022-10-30T02:32:38;17.70;64.30
68922;DHT22;55959;51.244;5.724;2022-10-30T02:35:04;17.70;64.40
68922;DHT22;55959;51.244;5.724;2022-10-30T02:37:31;17.70;64.60
68922;DHT22;55959;51.244;5.724;2022-10-30T02:39:58;17.70;64.50
68922;DHT22;55959;51.244;5.724;2022-10-30T02:42:24;17.60;64.50
68922;DHT22;55959;51.244;5.724;2022-10-30T02:44:49;17.60;64.70
68922;DHT22;55959;51.244;5.724;2022-10-30T02:47:15;17.60;64.80
68922;DHT22;55959;51.244;5.724;2022-10-30T02:49:41;17.60;64.90
68922;DHT22;55959;51.244;5.724;2022-10-30T02:52:07;17.50;64.80
68922;DHT22;55959;51.244;5.724;2022-10-30T02:54:33;17.60;65.00
68922;DHT22;55959;51.244;5.724;2022-10-30T02:56:59;17.50;65.00
68922;DHT22;55959;51.244;5.724;2022-10-30T02:59:25;17.50;65.10
68922;DHT22;55959;51.244;5.724;2022-10-30T03:01:51;17.50;65.10
68922;DHT22;55959;51.244;5.724;2022-10-30T03:04:17;17.40;65.10
68922;DHT22;55959;51.244;5.724;2022-10-30T03:06:42;17.40;65.10
68922;DHT22;55959;51.244;5.724;2022-10-30T03:09:08;17.40;65.10
68922;DHT22;55959;51.244;5.724;2022-10-30T03:11:34;17.40;65.10
68922;DHT22;55959;51.244;5.724;2022-10-30T03:14:00;17.40;65.30
68922;DHT22;55959;51.244;5.724;2022-10-30T03:16:26;17.30;65.30
68922;DHT22;55959;51.244;5.724;2022-10-30T03:18:57;17.30;65.30
68922;DHT22;55959;51.244;5.724;2022-10-30T03:21:25;17.30;65.30
68922;DHT22;55959;51.244;5.724;2022-10-30T03:23:53;17.20;65.30
68922;DHT22;55959;51.244;5.724;2022-10-30T03:26:19;17.20;65.40
68922;DHT22;55959;51.244;5.724;2022-10-30T03:28:45;17.20;65.50
68922;DHT22;55959;51.244;5.724;2022-10-30T03:31:13;17.10;65.50
68922;DHT22;55959;51.244;5.724;2022-10-30T03:33:41;17.10;65.60
68922;DHT22;55959;51.244;5.724;2022-10-30T03:36:09;17.10;65.70
68922;DHT22;55959;51.244;5.724;2022-10-30T03:38:36;17.10;65.70
68922;DHT22;55959;51.244;5.724;2022-10-30T03:41:03;17.10;65.90
68922;DHT22;55959;51.244;5.724;2022-10-30T03:43:29;17.00;65.90
68922;DHT22;55959;51.244;5.724;2022-10-30T03:45:55;17.00;66.00
68922;DHT22;55959;51.244;5.724;2022-10-30T03:48:24;17.00;66.10
68922;DHT22;55959;51.244;5.724;2022-10-30T03:50:55;17.00;66.30
68922;DHT22;55959;51.244;5.724;2022-10-30T03:53:22;16.90;66.30
68922;DHT22;55959;51.244;5.724;2022-10-30T03:55:56;16.90;66.50
68922;DHT22;55959;51.244;5.724;2022-10-30T03:58:24;16.90;66.50
68922;DHT22;55959;51.244;5.724;2022-10-30T04:00:50;16.80;66.40
68922;DHT22;55959;51.244;5.724;2022-10-30T04:03:16;16.80;66.40
68922;DHT22;55959;51.244;5.724;2022-10-30T04:05:42;16.80;66.50
68922;DHT22;55959;51.244;5.724;2022-10-30T04:08:11;16.80;66.50
68922;DHT22;55959;51.244;5.724;2022-10-30T04:10:41;16.80;66.60
68922;DHT22;55959;51.244;5.724;2022-10-30T04:13:09;16.80;66.70
68922;DHT22;55959;51.244;5.724;2022-10-30T04:15:36;16.70;66.70
68922;DHT22;55959;51.244;5.724;2022-10-30T04:18:02;16.70;66.70
68922;DHT22;55959;51.244;5.724;2022-10-30T04:20:29;16.70;66.70
68922;DHT22;55959;51.244;5.724;2022-10-30T04:22:56;16.70;66.70
68922;DHT22;55959;51.244;5.724;2022-10-30T04:25:23;16.70;66.80
68922;DHT22;55959;51.244;5.724;2022-10-30T04:27:49;16.70;66.90
68922;DHT22;55959;51.244;5.724;2022-10-30T04:30:17;16.60;66.90
68922;DHT22;55959;51.244;5.724;2022-10-30T04:32:49;16.60;67.00
68922;DHT22;55959;51.244;5.724;2022-10-30T04:35:17;16.60;67.00
68922;DHT22;55959;51.244;5.724;2022-10-30T04:38:04;16.60;67.00
68922;DHT22;55959;51.244;5.724;2022-10-30T04:40:36;16.60;67.20
68922;DHT22;55959;51.244;5.724;2022-10-30T04:43:04;16.60;67.30
68922;DHT22;55959;51.244;5.724;2022-10-30T04:45:30;16.50;67.30
68922;DHT22;55959;51.244;5.724;2022-10-30T04:48:16;16.50;67.50
68922;DHT22;55959;51.244;5.724;2022-10-30T04:50:42;16.50;68.40
68922;DHT22;55959;51.244;5.724;2022-10-30T04:53:13;16.50;67.50
68922;DHT22;55959;51.244;5.724;2022-10-30T04:55:40;16.50;67.70
68922;DHT22;55959;51.244;5.724;2022-10-30T04:58:07;16.50;67.70
68922;DHT22;55959;51.244;5.724;2022-10-30T05:00:34;16.50;67.70
68922;DHT22;55959;51.244;5.724;2022-10-30T05:03:01;16.40;67.60
68922;DHT22;55959;51.244;5.724;2022-10-30T05:05:30;16.40;67.80
68922;DHT22;55959;51.244;5.724;2022-10-30T05:07:57;16.40;68.10
68922;DHT22;55959;51.244;5.724;2022-10-30T05:10:23;16.40;69.00
68922;DHT22;55959;51.244;5.724;2022-10-30T05:12:50;16.40;68.10
68922;DHT22;55959;51.244;5.724;2022-10-30T05:15:17;16.40;68.10
68922;DHT22;55959;51.244;5.724;2022-10-30T05:17:43;16.40;68.20
68922;DHT22;55959;51.244;5.724;2022-10-30T05:20:09;16.40;68.30
68922;DHT22;55959;51.244;5.724;2022-10-30T05:22:35;16.40;68.30
68922;DHT22;55959;51.244;5.724;2022-10-30T05:25:01;16.30;68.10
68922;DHT22;55959;51.244;5.724;2022-10-30T05:27:26;16.30;68.10
68922;DHT22;55959;51.244;5.724;2022-10-30T05:29:52;16.30;68.10
68922;DHT22;55959;51.244;5.724;2022-10-30T05:32:18;16.30;68.10
68922;DHT22;55959;51.244;5.724;2022-10-30T05:34:44;16.30;68.20
68922;DHT22;55959;51.244;5.724;2022-10-30T05:37:10;16.30;68.30
68922;DHT22;55959;51.244;5.724;2022-10-30T05:39:35;16.30;68.30
68922;DHT22;55959;51.244;5.724;2022-10-30T05:42:01;16.30;68.30
68922;DHT22;55959;51.244;5.724;2022-10-30T05:44:27;16.30;68.50
68922;DHT22;55959;51.244;5.724;2022-10-30T05:46:52;16.20;68.40
68922;DHT22;55959;51.244;5.724;2022-10-30T05:49:18;16.20;68.40
68922;DHT22;55959;51.244;5.724;2022-10-30T05:51:44;16.20;68.40
68922;DHT22;55959;51.244;5.724;2022-10-30T05:54:09;16.20;68.40
68922;DHT22;55959;51.244;5.724;2022-10-30T05:56:35;16.20;68.40
68922;DHT22;55959;51.244;5.724;2022-10-30T05:59:01;16.20;68.50
68922;DHT22;55959;51.244;5.724;2022-10-30T06:01:27;16.10;68.40
68922;DHT22;55959;51.244;5.724;2022-10-30T06:03:52;16.10;68.50
68922;DHT22;55959;51.244;5.724;2022-10-30T06:06:18;16.10;68.60
68922;DHT22;55959;51.244;5.724;2022-10-30T06:08:44;16.10;68.70
68922;DHT22;55959;51.244;5.724;2022-10-30T06:11:09;16.00;68.70
68922;DHT22;55959;51.244;5.724;2022-10-30T06:13:35;16.00;68.70
68922;DHT22;55959;51.244;5.724;2022-10-30T06:16:01;16.00;68.70
68922;DHT22;55959;51.244;5.724;2022-10-30T06:18:28;16.00;68.80
68922;DHT22;55959;51.244;5.724;2022-10-30T06:20:54;15.90;68.90
68922;DHT22;55959;51.244;5.724;2022-10-30T06:23:20;15.90;69.00
68922;DHT22;55959;51.244;5.724;2022-10-30T06:25:46;15.90;69.10
68922;DHT22;55959;51.244;5.724;2022-10-30T06:28:12;15.90;69.30
68922;DHT22;55959;51.244;5.724;2022-10-30T06:30:39;15.90;69.50
68922;DHT22;55959;51.244;5.724;2022-10-30T06:33:06;15.90;69.60
68922;DHT22;55959;51.244;5.724;2022-10-30T06:35:32;15.80;69.60
68922;DHT22;55959;51.244;5.724;2022-10-30T06:37:58;15.80;69.60
68922;DHT22;55959;51.244;5.724;2022-10-30T06:40:27;15.80;69.70
68922;DHT22;55959;51.244;5.724;2022-10-30T06:42:54;15.80;69.80
68922;DHT22;55959;51.244;5.724;2022-10-30T06:45:21;15.80;70.00
68922;DHT22;55959;51.244;5.724;2022-10-30T06:47:48;15.70;70.00
68922;DHT22;55959;51.244;5.724;2022-10-30T06:50:17;15.70;70.00
68922;DHT22;55959;51.244;5.724;2022-10-30T06:52:44;15.70;70.10
68922;DHT22;55959;51.244;5.724;2022-10-30T06:55:10;15.70;70.10
68922;DHT22;55959;51.244;5.724;2022-10-30T06:57:36;15.70;70.20
68922;DHT22;55959;51.244;5.724;2022-10-30T07:00:04;15.60;70.20
68922;DHT22;55959;51.244;5.724;2022-10-30T07:02:31;15.60;70.20
68922;DHT22;55959;51.244;5.724;2022-10-30T07:04:57;15.60;70.20
68922;DHT22;55959;51.244;5.724;2022-10-30T07:07:23;15.60;70.20
68922;DHT22;55959;51.244;5.724;2022-10-30T07:09:49;15.60;70.40
68922;DHT22;55959;51.244;5.724;2022-10-30T07:12:17;15.60;70.40
68922;DHT22;55959;51.244;5.724;2022-10-30T07:14:43;15.60;70.50
68922;DHT22;55959;51.244;5.724;2022-10-30T07:17:09;15.60;70.60
68922;DHT22;55959;51.244;5.724;2022-10-30T07:19:35;15.60;70.60
68922;DHT22;55959;51.244;5.724;2022-10-30T07:22:02;15.60;70.80
68922;DHT22;55959;51.244;5.724;2022-10-30T07:24:28;15.60;71.00
68922;DHT22;55959;51.244;5.724;2022-10-30T07:26:54;15.60;71.00
68922;DHT22;55959;51.244;5.724;2022-10-30T07:29:20;15.60;71.00
68922;DHT22;55959;51.244;5.724;2022-10-30T07:31:46;15.60;71.10
68922;DHT22;55959;51.244;5.724;2022-10-30T07:34:14;15.60;71.40
68922;DHT22;55959;51.244;5.724;2022-10-30T07:36:40;15.60;71.40
68922;DHT22;55959;51.244;5.724;2022-10-30T07:39:06;15.60;71.60
68922;DHT22;55959;51.244;5.724;2022-10-30T07:41:32;15.60;71.50
68922;DHT22;55959;51.244;5.724;2022-10-30T07:43:57;15.60;71.60
68922;DHT22;55959;51.244;5.724;2022-10-30T07:46:23;15.60;71.80
68922;DHT22;55959;51.244;5.724;2022-10-30T07:48:49;15.70;72.00
68922;DHT22;55959;51.244;5.724;2022-10-30T07:51:14;15.70;72.90
68922;DHT22;55959;51.244;5.724;2022-10-30T07:53:40;15.70;72.10
68922;DHT22;55959;51.244;5.724;2022-10-30T07:56:06;15.70;72.30
68922;DHT22;55959;51.244;5.724;2022-10-30T07:58:32;15.70;72.40
68922;DHT22;55959;51.244;5.724;2022-10-30T08:00:57;15.70;72.50
68922;DHT22;55959;51.244;5.724;2022-10-30T08:03:23;15.80;72.80
68922;DHT22;55959;51.244;5.724;2022-10-30T08:05:49;15.80;73.00
68922;DHT22;55959;51.244;5.724;2022-10-30T08:08:14;15.90;73.30
68922;DHT22;55959;51.244;5.724;2022-10-30T08:10:40;15.90;73.50
68922;DHT22;55959;51.244;5.724;2022-10-30T08:13:06;15.90;73.80
68922;DHT22;55959;51.244;5.724;2022-10-30T08:15:31;16.00;73.90
68922;DHT22;55959;51.244;5.724;2022-10-30T08:17:57;16.00;73.90
68922;DHT22;55959;51.244;5.724;2022-10-30T08:20:23;16.10;73.90
68922;DHT22;55959;51.244;5.724;2022-10-30T08:22:54;16.20;74.00
68922;DHT22;55959;51.244;5.724;2022-10-30T08:25:23;16.30;74.00
68922;DHT22;55959;51.244;5.724;2022-10-30T08:27:55;16.30;74.00
68922;DHT22;55959;51.244;5.724;2022-10-30T08:30:28;16.40;74.00
68922;DHT22;55959;51.244;5.724;2022-10-30T08:32:59;16.50;74.00
68922;DHT22;55959;51.244;5.724;2022-10-30T08:35:27;16.50;73.90
68922;DHT22;55959;51.244;5.724;2022-10-30T08:37:57;16.60;73.90
68922;DHT22;55959;51.244;5.724;2022-10-30T08:40:24;16.60;73.90
68922;DHT22;55959;51.244;5.724;2022-10-30T08:42:54;16.70;74.00
68922;DHT22;55959;51.244;5.724;2022-10-30T08:45:22;16.80;74.00
68922;DHT22;55959;51.244;5.724;2022-10-30T08:47:59;16.80;74.00
68922;DHT22;55959;51.244;5.724;2022-10-30T08:50:26;16.90;73.90
68922;DHT22;55959;51.244;5.724;2022-10-30T08:52:52;17.00;73.90
68922;DHT22;55959;51.244;5.724;2022-10-30T08:55:17;17.00;73.80
68922;DHT22;55959;51.244;5.724;2022-10-30T08:57:43;17.10;73.70
68922;DHT22;55959;51.244;5.724;2022-10-30T09:00:09;17.20;73.60
68922;DHT22;55959;51.244;5.724;2022-10-30T09:02:36;17.30;73.50
68922;DHT22;55959;51.244;5.724;2022-10-30T09:05:08;17.30;73.40
68922;DHT22;55959;51.244;5.724;2022-10-30T09:07:34;17.30;73.30
68922;DHT22;55959;51.244;5.724;2022-10-30T09:10:00;17.40;73.20
68922;DHT22;55959;51.244;5.724;2022-10-30T09:12:26;17.50;73.10
68922;DHT22;55959;51.244;5.724;2022-10-30T09:14:53;17.50;73.10
68922;DHT22;55959;51.244;5.724;2022-10-30T09:17:18;17.60;73.10
68922;DHT22;55959;51.244;5.724;2022-10-30T09:19:44;17.70;72.90
68922;DHT22;55959;51.244;5.724;2022-10-30T09:22:10;17.80;72.90
68922;DHT22;55959;51.244;5.724;2022-10-30T09:24:35;17.80;72.70
68922;DHT22;55959;51.244;5.724;2022-10-30T09:27:03;17.90;72.70
68922;DHT22;55959;51.244;5.724;2022-10-30T09:29:28;18.00;72.50
68922;DHT22;55959;51.244;5.724;2022-10-30T09:31:56;18.00;72.40
68922;DHT22;55959;51.244;5.724;2022-10-30T09:34:22;18.10;72.20
68922;DHT22;55959;51.244;5.724;2022-10-30T09:36:48;18.20;72.00
68922;DHT22;55959;51.244;5.724;2022-10-30T09:39:14;18.20;71.70
68922;DHT22;55959;51.244;5.724;2022-10-30T09:52:27;18.50;70.90
68922;DHT22;55959;51.244;5.724;2022-10-30T09:55:22;18.70;70.90
68922;DHT22;55959;51.244;5.724;2022-10-30T10:00:50;18.80;70.40
68922;DHT22;55959;51.244;5.724;2022-10-30T10:04:25;18.80;70.30
68922;DHT22;55959;51.244;5.724;2022-10-30T10:06:26;18.90;70.00
68922;DHT22;55959;51.244;5.724;2022-10-30T10:08:58;19.00;70.00
68922;DHT22;55959;51.244;5.724;2022-10-30T10:11:37;19.00;69.80
68922;DHT22;55959;51.244;5.724;2022-10-30T10:14:20;19.10;69.70
68922;DHT22;55959;51.244;5.724;2022-10-30T10:16:52;19.20;69.80
68922;DHT22;55959;51.244;5.724;2022-10-30T10:22:02;19.40;69.60
68922;DHT22;55959;51.244;5.724;2022-10-30T10:24:44;19.50;69.50
68922;DHT22;55959;51.244;5.724;2022-10-30T10:30:22;19.60;69.00
68922;DHT22;55959;51.244;5.724;2022-10-30T10:36:20;19.80;69.00
68922;DHT22;55959;51.244;5.724;2022-10-30T10:50:57;20.30;68.20
68922;DHT22;55959;51.244;5.724;2022-10-30T10:56:09;20.40;67.50
68922;DHT22;55959;51.244;5.724;2022-10-30T11:01:13;20.60;66.70
68922;DHT22;55959;51.244;5.724;2022-10-30T11:04:02;20.70;66.60
68922;DHT22;55959;51.244;5.724;2022-10-30T11:06:34;20.80;66.40
68922;DHT22;55959;51.244;5.724;2022-10-30T11:09:19;20.90;65.90
68922;DHT22;55959;51.244;5.724;2022-10-30T11:11:53;21.00;65.90
68922;DHT22;55959;51.244;5.724;2022-10-30T11:14:25;21.00;65.80
68922;DHT22;55959;51.244;5.724;2022-10-30T11:17:12;21.10;66.00
68922;DHT22;55959;51.244;5.724;2022-10-30T11:19:44;21.20;66.00
68922;DHT22;55959;51.244;5.724;2022-10-30T11:22:29;21.30;65.60
68922;DHT22;55959;51.244;5.724;2022-10-30T11:27:46;21.50;65.20
68922;DHT22;55959;51.244;5.724;2022-10-30T11:30:19;21.50;65.20
68922;DHT22;55959;51.244;5.724;2022-10-30T11:32:46;21.60;65.30
68922;DHT22;55959;51.244;5.724;2022-10-30T11:35:14;21.70;64.30
68922;DHT22;55959;51.244;5.724;2022-10-30T11:37:43;21.70;64.20
68922;DHT22;55959;51.244;5.724;2022-10-30T11:45:27;22.00;63.50
68922;DHT22;55959;51.244;5.724;2022-10-30T11:47:58;22.00;63.50
68922;DHT22;55959;51.244;5.724;2022-10-30T11:50:28;22.10;63.50
68922;DHT22;55959;51.244;5.724;2022-10-30T11:52:57;22.20;63.30
68922;DHT22;55959;51.244;5.724;2022-10-30T11:55:34;22.20;63.20
68922;DHT22;55959;51.244;5.724;2022-10-30T11:58:05;22.30;63.00
68922;DHT22;55959;51.244;5.724;2022-10-30T12:00:35;22.40;62.40
68922;DHT22;55959;51.244;5.724;2022-10-30T12:03:01;22.50;61.60
68922;DHT22;55959;51.244;5.724;2022-10-30T12:05:39;22.60;61.30
68922;DHT22;55959;51.244;5.724;2022-10-30T12:10:31;22.70;60.30
68922;DHT22;55959;51.244;5.724;2022-10-30T12:13:03;22.70;60.10
68922;DHT22;55959;51.244;5.724;2022-10-30T12:15:33;22.80;59.90
68922;DHT22;55959;51.244;5.724;2022-10-30T12:18:03;22.90;59.80
68922;DHT22;55959;51.244;5.724;2022-10-30T12:20:32;22.90;59.30
68922;DHT22;55959;51.244;5.724;2022-10-30T12:23:08;23.00;58.80
68922;DHT22;55959;51.244;5.724;2022-10-30T12:25:35;23.00;58.10
68922;DHT22;55959;51.244;5.724;2022-10-30T12:28:07;23.10;58.10
68922;DHT22;55959;51.244;5.724;2022-10-30T12:31:03;23.10;58.00
68922;DHT22;55959;51.244;5.724;2022-10-30T12:33:46;23.20;57.90
68922;DHT22;55959;51.244;5.724;2022-10-30T12:36:20;23.20;57.80
68922;DHT22;55959;51.244;5.724;2022-10-30T12:41:43;23.30;57.40
68922;DHT22;55959;51.244;5.724;2022-10-30T12:44:34;23.30;57.40
68922;DHT22;55959;51.244;5.724;2022-10-30T12:47:28;23.30;57.50
68922;DHT22;55959;51.244;5.724;2022-10-30T12:50:00;23.40;57.40
68922;DHT22;55959;51.244;5.724;2022-10-30T12:52:52;23.40;57.20
68922;DHT22;55959;51.244;5.724;2022-10-30T12:55:30;23.40;57.30
68922;DHT22;55959;51.244;5.724;2022-10-30T13:04:33;23.50;57.10
68922;DHT22;55959;51.244;5.724;2022-10-30T13:07:10;23.60;56.80
68922;DHT22;55959;51.244;5.724;2022-10-30T13:12:33;23.60;56.40
68922;DHT22;55959;51.244;5.724;2022-10-30T13:15:05;23.60;56.40
68922;DHT22;55959;51.244;5.724;2022-10-30T13:17:34;23.70;56.60
68922;DHT22;55959;51.244;5.724;2022-10-30T13:19:59;23.70;56.40
68922;DHT22;55959;51.244;5.724;2022-10-30T13:25:56;23.80;56.10
68922;DHT22;55959;51.244;5.724;2022-10-30T13:28:47;23.80;56.00
68922;DHT22;55959;51.244;5.724;2022-10-30T13:34:27;23.80;55.90
68922;DHT22;55959;51.244;5.724;2022-10-30T13:37:03;23.90;56.00
68922;DHT22;55959;51.244;5.724;2022-10-30T13:42:36;23.90;56.10
68922;DHT22;55959;51.244;5.724;2022-10-30T13:45:25;24.00;55.90
68922;DHT22;55959;51.244;5.724;2022-10-30T13:48:09;24.00;55.90
68922;DHT22;55959;51.244;5.724;2022-10-30T13:54:18;24.10;56.50
68922;DHT22;55959;51.244;5.724;2022-10-30T13:56:48;24.10;55.70
68922;DHT22;55959;51.244;5.724;2022-10-30T14:07:39;24.20;55.40
68922;DHT22;55959;51.244;5.724;2022-10-30T14:10:35;24.20;55.20
68922;DHT22;55959;51.244;5.724;2022-10-30T14:15:40;24.20;55.30
68922;DHT22;55959;51.244;5.724;2022-10-30T14:23:14;24.20;55.20
68922;DHT22;55959;51.244;5.724;2022-10-30T14:28:35;24.20;55.30
68922;DHT22;55959;51.244;5.724;2022-10-30T14:31:04;24.20;55.20
68922;DHT22;55959;51.244;5.724;2022-10-30T14:56:39;24.30;55.00
68922;DHT22;55959;51.244;5.724;2022-10-30T14:58:42;24.40;55.10
68922;DHT22;55959;51.244;5.724;2022-10-30T15:05:06;24.40;54.50
68922;DHT22;55959;51.244;5.724;2022-10-30T15:07:46;24.30;54.50
68922;DHT22;55959;51.244;5.724;2022-10-30T15:10:27;24.30;54.30
68922;DHT22;55959;51.244;5.724;2022-10-30T15:16:01;24.30;54.40
68922;DHT22;55959;51.244;5.724;2022-10-30T15:18:28;24.20;54.40
68922;DHT22;55959;51.244;5.724;2022-10-30T15:21:03;24.20;54.70
68922;DHT22;55959;51.244;5.724;2022-10-30T15:23:32;24.20;54.40
68922;DHT22;55959;51.244;5.724;2022-10-30T15:26:03;24.10;54.30
68922;DHT22;55959;51.244;5.724;2022-10-30T15:28:32;24.10;54.50
68922;DHT22;55959;51.244;5.724;2022-10-30T15:31:21;24.10;54.70
68922;DHT22;55959;51.244;5.724;2022-10-30T15:33:48;24.10;54.70
68922;DHT22;55959;51.244;5.724;2022-10-30T15:36:25;24.00;54.60
68922;DHT22;55959;51.244;5.724;2022-10-30T15:39:15;24.00;54.70
68922;DHT22;55959;51.244;5.724;2022-10-30T15:41:56;24.00;54.70
68922;DHT22;55959;51.244;5.724;2022-10-30T15:44:34;23.90;54.60
68922;DHT22;55959;51.244;5.724;2022-10-30T15:47:03;23.90;54.80
68922;DHT22;55959;51.244;5.724;2022-10-30T15:49:35;23.80;54.90
68922;DHT22;55959;51.244;5.724;2022-10-30T15:52:35;23.80;55.00
68922;DHT22;55959;51.244;5.724;2022-10-30T15:55:05;23.70;55.10
68922;DHT22;55959;51.244;5.724;2022-10-30T15:57:42;23.60;55.10
68922;DHT22;55959;51.244;5.724;2022-10-30T16:00:30;23.60;55.20
68922;DHT22;55959;51.244;5.724;2022-10-30T16:03:15;23.50;55.20
68922;DHT22;55959;51.244;5.724;2022-10-30T16:05:41;23.50;55.30
68922;DHT22;55959;51.244;5.724;2022-10-30T16:08:18;23.40;55.50
68922;DHT22;55959;51.244;5.724;2022-10-30T16:10:46;23.40;55.70
68922;DHT22;55959;51.244;5.724;2022-10-30T16:13:18;23.30;55.80
68922;DHT22;55959;51.244;5.724;2022-10-30T16:15:47;23.20;55.80
68922;DHT22;55959;51.244;5.724;2022-10-30T16:18:21;23.20;55.90
68922;DHT22;55959;51.244;5.724;2022-10-30T16:20:53;23.20;55.90
68922;DHT22;55959;51.244;5.724;2022-10-30T16:23:20;23.10;56.00
68922;DHT22;55959;51.244;5.724;2022-10-30T16:25:48;23.00;56.00
68922;DHT22;55959;51.244;5.724;2022-10-30T16:28:23;23.00;56.10
68922;DHT22;55959;51.244;5.724;2022-10-30T16:30:50;23.00;56.10
68922;DHT22;55959;51.244;5.724;2022-10-30T16:33:23;22.90;56.10
68922;DHT22;55959;51.244;5.724;2022-10-30T16:35:51;22.90;56.20
68922;DHT22;55959;51.244;5.724;2022-10-30T16:38:18;22.90;56.20
68922;DHT22;55959;51.244;5.724;2022-10-30T16:40:46;22.80;56.10
68922;DHT22;55959;51.244;5.724;2022-10-30T16:43:31;22.80;56.10
68922;DHT22;55959;51.244;5.724;2022-10-30T16:48:41;22.70;56.20
68922;DHT22;55959;51.244;5.724;2022-10-30T16:51:16;22.70;56.20
68922;DHT22;55959;51.244;5.724;2022-10-30T16:53:47;22.70;56.30
68922;DHT22;55959;51.244;5.724;2022-10-30T16:56:25;22.60;56.40
68922;DHT22;55959;51.244;5.724;2022-10-30T16:59:13;22.60;56.30
68922;DHT22;55959;51.244;5.724;2022-10-30T17:01:41;22.60;56.40
68922;DHT22;55959;51.244;5.724;2022-10-30T17:04:12;22.50;56.30
68922;DHT22;55959;51.244;5.724;2022-10-30T17:06:42;22.50;56.50
68922;DHT22;55959;51.244;5.724;2022-10-30T17:09:26;22.50;56.50
68922;DHT22;55959;51.244;5.724;2022-10-30T17:17:31;22.40;56.80
68922;DHT22;55959;51.244;5.724;2022-10-30T17:20:01;22.40;56.90
68922;DHT22;55959;51.244;5.724;2022-10-30T17:22:29;22.30;56.90
68922;DHT22;55959;51.244;5.724;2022-10-30T17:24:56;22.30;57.00
68922;DHT22;55959;51.244;5.724;2022-10-30T17:29:52;22.30;57.10
68922;DHT22;55959;51.244;5.724;2022-10-30T17:35:01;22.20;57.10
68922;DHT22;55959;51.244;5.724;2022-10-30T17:37:30;22.20;57.30
68922;DHT22;55959;51.244;5.724;2022-10-30T17:39:56;22.20;57.30
68922;DHT22;55959;51.244;5.724;2022-10-30T17:42:22;22.20;57.30
68922;DHT22;55959;51.244;5.724;2022-10-30T17:44:48;22.10;57.30
68922;DHT22;55959;51.244;5.724;2022-10-30T17:47:16;22.10;57.40
68922;DHT22;55959;51.244;5.724;2022-10-30T17:49:43;22.10;57.50
68922;DHT22;55959;51.244;5.724;2022-10-30T17:52:14;22.10;57.50
68922;DHT22;55959;51.244;5.724;2022-10-30T17:54:41;22.00;57.40
68922;DHT22;55959;51.244;5.724;2022-10-30T17:57:12;22.00;57.50
68922;DHT22;55959;51.244;5.724;2022-10-30T17:59:39;22.00;57.60
68922;DHT22;55959;51.244;5.724;2022-10-30T18:02:14;22.00;57.70
68922;DHT22;55959;51.244;5.724;2022-10-30T18:04:42;21.90;57.70
68922;DHT22;55959;51.244;5.724;2022-10-30T18:07:12;21.80;57.70
68922;DHT22;55959;51.244;5.724;2022-10-30T18:09:40;21.80;57.80
68922;DHT22;55959;51.244;5.724;2022-10-30T18:12:09;21.80;57.90
68922;DHT22;55959;51.244;5.724;2022-10-30T18:14:38;21.70;57.90
68922;DHT22;55959;51.244;5.724;2022-10-30T18:17:05;21.70;58.00
68922;DHT22;55959;51.244;5.724;2022-10-30T18:19:31;21.70;58.10
68922;DHT22;55959;51.244;5.724;2022-10-30T18:21:56;21.60;58.20
68922;DHT22;55959;51.244;5.724;2022-10-30T18:24:22;21.60;58.20
68922;DHT22;55959;51.244;5.724;2022-10-30T18:26:48;21.60;58.30
68922;DHT22;55959;51.244;5.724;2022-10-30T18:29:14;21.50;58.30
68922;DHT22;55959;51.244;5.724;2022-10-30T18:31:39;21.50;58.40
68922;DHT22;55959;51.244;5.724;2022-10-30T18:34:16;21.50;58.50
68922;DHT22;55959;51.244;5.724;2022-10-30T18:36:45;21.50;59.20